Time;durP1;ratioP1;P1;durP2;ratioP2;P2;SDS_P1;SDS_P2;PMS_P1;PMS_P2;Temp;Humidity;BMP_temperature;BMP_pressure;BME280_temperature;BME280_humidity;BME280_pressure;Samples;Min_cycle;Max_cycle;Signal;HPM_P1;HPM_P2
2022/10/22 00:01:27;;;;;;;68.07;37.40;;;13.00;99.90;;;;;;6313801;22;20426;-87
2022/10/22 00:03:53;;;;;;;77.97;41.00;;;13.00;99.90;;;;;;6312898;22;20005;-87
2022/10/22 00:06:19;;;;;;;77.93;40.05;;;13.00;99.90;;;;;;6312688;22;20336;-88
2022/10/22 00:08:45;;;;;;;77.85;39.88;;;13.00;99.90;;;;;;6339990;22;20002;-86
2022/10/22 00:11:14;;;;;;;73.20;40.05;;;13.00;99.90;;;;;;6312347;22;20026;-88
2022/10/22 00:13:41;;;;;;;78.47;41.30;;;13.00;99.90;;;;;;6312660;22;20029;-87
2022/10/22 00:16:07;;;;;;;71.18;39.88;;;13.00;99.90;;;;;;6313859;22;20001;-87
2022/10/22 00:18:32;;;;;;;68.50;38.10;;;13.00;99.90;;;;;;6340935;22;20014;-86
2022/10/22 00:20:58;;;;;;;70.80;37.75;;;13.00;99.90;;;;;;6340546;22;19995;-87
2022/10/22 00:23:24;;;;;;;71.55;37.90;;;13.00;99.90;;;;;;6312436;22;20033;-89
2022/10/22 00:25:52;;;;;;;70.40;37.85;;;13.00;99.90;;;;;;6312048;22;19999;-91
2022/10/22 00:28:18;;;;;;;70.18;39.17;;;13.00;99.90;;;;;;6312899;22;20003;-86
2022/10/22 00:30:44;;;;;;;73.07;38.60;;;13.00;99.90;;;;;;6311922;22;20009;-89
2022/10/22 00:33:09;;;;;;;319.90;137.65;;;13.00;99.90;;;;;;6312114;22;20022;-87
2022/10/22 00:35:35;;;;;;;208.10;89.65;;;13.00;99.90;;;;;;6311986;22;19990;-87
2022/10/22 00:38:01;;;;;;;274.05;130.93;;;13.00;99.90;;;;;;6311873;22;20024;-89
2022/10/22 00:40:27;;;;;;;142.68;67.88;;;13.00;99.90;;;;;;6339686;22;20018;-87
2022/10/22 00:42:53;;;;;;;129.38;68.40;;;13.00;99.90;;;;;;6312139;22;19995;-88
2022/10/22 00:45:25;;;;;;;149.77;79.72;;;12.90;99.90;;;;;;6311399;22;20014;-90
2022/10/22 00:47:59;;;;;;;95.32;49.00;;;12.90;99.90;;;;;;6312086;22;20351;-88
2022/10/22 00:50:36;;;;;;;82.03;41.13;;;12.90;99.90;;;;;;6312095;22;20003;-90
2022/10/22 00:53:05;;;;;;;90.55;52.70;;;12.90;99.90;;;;;;6286268;22;20019;-86
2022/10/22 00:55:32;;;;;;;88.97;48.20;;;12.90;99.90;;;;;;6312382;22;19991;-86
2022/10/22 00:57:58;;;;;;;82.90;42.05;;;12.90;99.90;;;;;;6313477;22;19995;-89
2022/10/22 01:00:25;;;;;;;75.72;41.08;;;12.90;99.90;;;;;;6313085;22;20403;-85
2022/10/22 01:02:52;;;;;;;121.80;66.63;;;12.90;99.90;;;;;;6339308;22;19995;-89
2022/10/22 01:05:18;;;;;;;70.05;39.92;;;12.90;99.90;;;;;;6311989;22;19999;-88
2022/10/22 01:07:48;;;;;;;63.25;35.35;;;12.90;99.90;;;;;;6311883;22;20005;-89
2022/10/22 01:10:32;;;;;;;60.05;33.83;;;12.90;99.90;;;;;;6339118;22;20082;-86
2022/10/22 01:13:07;;;;;;;63.92;34.05;;;12.80;99.90;;;;;;6311707;22;19994;-88
2022/10/22 01:15:58;;;;;;;67.65;35.80;;;12.80;99.90;;;;;;6311948;22;20005;-86
2022/10/22 01:18:28;;;;;;;69.13;36.80;;;12.70;99.90;;;;;;6311879;22;20025;-87
2022/10/22 01:21:29;;;;;;;62.03;35.33;;;12.80;99.90;;;;;;6311871;22;20002;-89
2022/10/22 01:24:30;;;;;;;66.55;36.30;;;12.70;99.90;;;;;;6158634;23;20434;-89
2022/10/22 01:26:58;;;;;;;64.72;37.17;;;12.60;99.90;;;;;;6150517;23;19997;-85
2022/10/22 01:29:41;;;;;;;66.20;39.13;;;12.50;99.90;;;;;;6190472;23;20000;-87
2022/10/22 01:32:13;;;;;;;60.28;36.25;;;12.50;99.90;;;;;;6189954;23;19997;-89
2022/10/22 01:34:43;;;;;;;75.15;39.22;;;12.50;99.90;;;;;;6215858;23;20128;-87
2022/10/22 01:37:11;;;;;;;66.30;38.65;;;12.50;99.90;;;;;;6216088;23;20461;-86
2022/10/22 01:39:39;;;;;;;74.03;40.33;;;12.50;99.90;;;;;;6190925;23;20004;-88
2022/10/22 01:42:05;;;;;;;70.93;41.15;;;12.50;99.90;;;;;;6191830;23;20373;-90
2022/10/22 01:44:36;;;;;;;72.53;43.08;;;12.60;99.90;;;;;;6191238;23;20063;-89
2022/10/22 01:47:16;;;;;;;72.70;45.45;;;12.50;99.90;;;;;;6191044;23;20001;-86
2022/10/22 01:50:30;;;;;;;69.97;42.08;;;12.50;99.90;;;;;;6190453;23;20430;-85
2022/10/22 01:53:16;;;;;;;77.78;44.15;;;12.60;99.90;;;;;;6154287;23;20007;-87
2022/10/22 01:56:19;;;;;;;71.07;41.08;;;12.60;99.90;;;;;;6161329;23;20083;-87
2022/10/22 01:58:53;;;;;;;76.13;42.42;;;12.60;99.90;;;;;;6188181;23;20000;-84
2022/10/22 02:01:34;;;;;;;73.53;45.33;;;12.60;99.90;;;;;;6291466;22;20367;-86
2022/10/22 02:04:09;;;;;;;73.97;43.20;;;12.60;99.90;;;;;;6343634;22;20014;-86
2022/10/22 02:06:38;;;;;;;67.95;39.92;;;12.60;99.90;;;;;;6318213;22;20030;-85
2022/10/22 02:09:06;;;;;;;67.70;40.53;;;12.60;99.90;;;;;;6345647;22;19998;-86
2022/10/22 02:11:32;;;;;;;72.85;40.03;;;12.60;99.90;;;;;;6316945;22;19995;-86
2022/10/22 02:14:02;;;;;;;73.05;40.42;;;12.60;99.90;;;;;;6316818;22;20082;-88
2022/10/22 02:16:33;;;;;;;75.00;42.90;;;12.60;99.90;;;;;;6316811;22;20404;-88
2022/10/22 02:19:02;;;;;;;79.13;41.75;;;12.60;99.90;;;;;;6342980;22;20021;-84
2022/10/22 02:21:28;;;;;;;72.47;40.78;;;12.70;99.90;;;;;;6317305;22;20043;-84
2022/10/22 02:23:54;;;;;;;75.82;43.35;;;12.60;99.90;;;;;;6317416;22;20081;-85
2022/10/22 02:26:31;;;;;;;78.10;44.95;;;12.60;99.90;;;;;;6344031;22;20335;-86
2022/10/22 02:29:14;;;;;;;81.20;44.85;;;12.70;99.90;;;;;;6317895;22;20045;-85
2022/10/22 02:31:42;;;;;;;87.03;46.83;;;12.70;99.90;;;;;;6315650;22;19995;-87
2022/10/22 02:34:13;;;;;;;82.30;43.78;;;12.70;99.90;;;;;;6316657;22;20351;-85
2022/10/22 02:36:41;;;;;;;74.65;44.15;;;12.70;99.90;;;;;;6317106;22;20132;-87
2022/10/22 02:39:09;;;;;;;78.45;43.90;;;12.70;99.90;;;;;;6342568;22;20018;-86
2022/10/22 02:41:36;;;;;;;79.80;42.67;;;12.70;99.90;;;;;;6315550;22;20064;-86
2022/10/22 02:44:08;;;;;;;76.22;43.50;;;12.70;99.90;;;;;;6314125;22;20019;-87
2022/10/22 02:46:34;;;;;;;77.10;43.42;;;12.70;99.90;;;;;;6341597;22;20010;-87
2022/10/22 02:48:59;;;;;;;82.40;42.92;;;12.70;99.90;;;;;;6315344;22;20022;-88
2022/10/22 02:51:25;;;;;;;76.78;43.63;;;12.70;99.90;;;;;;6315272;22;20017;-86
2022/10/22 02:53:51;;;;;;;83.32;44.17;;;12.70;99.90;;;;;;6314884;22;19994;-89
2022/10/22 02:56:17;;;;;;;85.47;46.13;;;12.70;99.90;;;;;;6315375;22;19997;-90
2022/10/22 02:58:43;;;;;;;82.03;47.60;;;12.70;99.90;;;;;;6313572;22;20002;-87
2022/10/22 03:01:08;;;;;;;89.13;47.85;;;12.80;99.90;;;;;;6313166;22;20003;-88
2022/10/22 03:03:37;;;;;;;77.30;44.42;;;12.80;99.90;;;;;;6312948;22;20086;-86
2022/10/22 03:06:03;;;;;;;74.72;42.47;;;12.80;99.90;;;;;;6312918;22;20051;-88
2022/10/22 03:08:29;;;;;;;76.68;44.78;;;12.80;99.90;;;;;;6313393;22;20001;-85
2022/10/22 03:10:55;;;;;;;71.38;42.70;;;12.80;99.90;;;;;;6313534;22;20007;-85
2022/10/22 03:13:21;;;;;;;73.88;44.50;;;12.80;99.90;;;;;;6315316;22;19995;-87
2022/10/22 03:15:50;;;;;;;84.55;42.92;;;12.80;99.90;;;;;;6315976;22;20020;-90
2022/10/22 03:18:16;;;;;;;74.97;40.35;;;12.80;99.90;;;;;;6316342;22;19999;-86
2022/10/22 03:20:42;;;;;;;77.22;38.55;;;12.80;99.90;;;;;;6315495;22;20003;-85
2022/10/22 03:23:10;;;;;;;66.10;38.72;;;12.80;99.90;;;;;;6314191;22;20022;-87
2022/10/22 03:25:38;;;;;;;64.63;37.45;;;12.80;99.90;;;;;;6313851;22;20002;-88
2022/10/22 03:28:07;;;;;;;62.67;36.63;;;12.80;99.90;;;;;;6314536;22;19997;-90
2022/10/22 03:30:33;;;;;;;65.10;37.67;;;12.80;99.90;;;;;;6316822;22;20007;-88
2022/10/22 03:32:58;;;;;;;65.97;37.40;;;12.80;99.90;;;;;;6316407;22;20008;-85
2022/10/22 03:35:24;;;;;;;72.22;40.00;;;12.80;99.90;;;;;;6317306;22;19994;-87
2022/10/22 03:37:51;;;;;;;70.32;39.13;;;12.80;99.90;;;;;;6317153;22;20006;-85
2022/10/22 03:40:17;;;;;;;76.10;39.42;;;12.80;99.90;;;;;;6316054;22;20002;-89
2022/10/22 03:42:43;;;;;;;69.15;38.15;;;12.80;99.90;;;;;;6315976;22;20020;-86
2022/10/22 03:45:09;;;;;;;74.60;38.03;;;12.90;99.90;;;;;;6314071;22;20054;-85
2022/10/22 03:47:36;;;;;;;64.97;38.60;;;12.90;99.90;;;;;;6312939;22;20002;-85
2022/10/22 03:50:02;;;;;;;69.75;40.17;;;12.80;99.90;;;;;;6342615;22;20022;-88
2022/10/22 03:52:34;;;;;;;68.43;38.15;;;12.80;99.90;;;;;;6313703;22;20037;-86
2022/10/22 03:54:59;;;;;;;64.15;38.72;;;12.80;99.90;;;;;;6314558;22;19999;-91
2022/10/22 03:57:25;;;;;;;65.32;40.17;;;12.80;99.90;;;;;;6343192;22;20051;-86
2022/10/22 03:59:51;;;;;;;70.45;40.10;;;12.90;99.90;;;;;;6316279;22;20009;-87
2022/10/22 04:02:17;;;;;;;70.47;38.17;;;12.90;99.90;;;;;;6314767;22;20400;-86
2022/10/22 04:04:42;;;;;;;64.45;37.33;;;12.90;99.90;;;;;;6313307;22;20055;-87
2022/10/22 04:07:08;;;;;;;68.57;38.10;;;12.90;99.90;;;;;;6312592;22;20487;-85
2022/10/22 04:09:34;;;;;;;66.93;37.80;;;12.90;99.90;;;;;;6340585;22;19995;-87
2022/10/22 04:12:00;;;;;;;66.40;39.67;;;12.80;99.90;;;;;;6312456;22;20090;-88
2022/10/22 04:14:26;;;;;;;69.82;37.47;;;12.90;99.90;;;;;;6314487;22;19997;-85
2022/10/22 04:16:52;;;;;;;63.63;37.83;;;12.90;99.90;;;;;;6313899;22;20078;-87
2022/10/22 04:19:18;;;;;;;70.63;37.08;;;12.90;99.90;;;;;;6340688;22;20006;-88
2022/10/22 04:21:44;;;;;;;59.80;37.05;;;12.90;99.90;;;;;;6312911;22;20041;-86
2022/10/22 04:24:09;;;;;;;59.53;35.95;;;12.90;99.90;;;;;;6340474;22;20048;-90
2022/10/22 04:26:38;;;;;;;63.25;36.83;;;12.80;99.90;;;;;;6312212;22;20400;-86
2022/10/22 04:29:06;;;;;;;69.18;38.13;;;12.80;99.90;;;;;;6312836;22;20003;-86
2022/10/22 04:31:31;;;;;;;66.63;37.05;;;12.80;99.90;;;;;;6313798;22;19999;-85
2022/10/22 04:33:59;;;;;;;66.32;37.85;;;12.80;99.90;;;;;;6312999;22;20002;-88
2022/10/22 04:36:26;;;;;;;65.70;37.97;;;12.80;99.90;;;;;;6313013;22;20002;-87
2022/10/22 04:38:55;;;;;;;69.38;38.25;;;12.70;99.90;;;;;;6313142;22;19999;-87
2022/10/22 04:41:27;;;;;;;63.22;38.13;;;12.70;99.90;;;;;;6314171;22;19995;-91
2022/10/22 04:43:53;;;;;;;;;;;12.70;99.90;;;;;;6314196;22;20098;-87
2022/10/22 04:46:19;;;;;;;73.30;39.38;;;12.70;99.90;;;;;;6313134;22;19901;-86
2022/10/22 04:48:46;;;;;;;70.53;38.88;;;12.60;99.90;;;;;;6312952;22;19995;-89
2022/10/22 04:51:17;;;;;;;72.90;39.63;;;12.60;99.90;;;;;;6313232;22;19995;-87
2022/10/22 04:53:44;;;;;;;74.05;40.35;;;12.60;99.90;;;;;;6312903;22;20001;-88
2022/10/22 04:56:15;;;;;;;72.50;39.92;;;12.50;99.90;;;;;;6312892;22;20407;-85
2022/10/22 04:58:42;;;;;;;73.97;40.08;;;12.50;99.90;;;;;;6312155;22;20006;-87
2022/10/22 05:01:22;;;;;;;72.85;38.92;;;12.50;99.90;;;;;;6311770;22;20014;-91
2022/10/22 05:03:49;;;;;;;67.03;38.67;;;12.50;99.90;;;;;;6313530;22;19995;-87
2022/10/22 05:06:15;;;;;;;71.90;39.00;;;12.40;99.90;;;;;;6313612;22;19994;-86
2022/10/22 05:08:42;;;;;;;70.18;38.72;;;12.30;99.90;;;;;;6313474;22;19999;-87
2022/10/22 05:11:16;;;;;;;69.00;39.75;;;12.30;99.90;;;;;;6314112;22;20019;-87
2022/10/22 05:13:43;;;;;;;74.32;42.10;;;12.30;99.90;;;;;;6313854;22;19998;-88
2022/10/22 05:16:10;;;;;;;75.70;43.92;;;12.30;99.90;;;;;;6313940;22;20002;-87
2022/10/22 05:18:37;;;;;;;72.13;41.65;;;12.30;99.90;;;;;;6313607;22;19998;-89
2022/10/22 05:21:06;;;;;;;73.43;41.83;;;12.30;99.90;;;;;;6340624;22;20312;-89
2022/10/22 05:23:32;;;;;;;83.47;44.53;;;12.30;99.90;;;;;;6313681;22;20077;-87
2022/10/22 05:26:04;;;;;;;87.18;45.80;;;12.30;99.90;;;;;;6340707;22;19990;-86
2022/10/22 05:28:31;;;;;;;79.88;45.08;;;12.30;99.90;;;;;;6313155;22;19998;-86
2022/10/22 05:30:58;;;;;;;83.43;49.50;;;12.40;99.90;;;;;;6313310;22;20030;-85
2022/10/22 05:33:49;;;;;;;93.20;51.05;;;12.40;99.90;;;;;;6340853;22;19987;-85
2022/10/22 05:36:25;;;;;;;254.02;119.55;;;12.40;99.90;;;;;;6307031;22;20011;-86
2022/10/22 05:39:08;;;;;;;203.57;92.40;;;12.50;99.90;;;;;;6313147;22;20002;-90
2022/10/22 05:41:40;;;;;;;131.25;64.00;;;12.50;99.90;;;;;;6312961;22;19995;-88
2022/10/22 05:44:08;;;;;;;133.98;66.18;;;12.50;99.90;;;;;;6300137;22;20017;-87
2022/10/22 05:46:45;;;;;;;350.73;174.52;;;12.50;99.90;;;;;;6313230;22;19999;-87
2022/10/22 05:49:20;;;;;;;142.90;75.85;;;12.50;99.90;;;;;;6313221;22;20007;-88
2022/10/22 05:51:46;;;;;;;127.13;67.07;;;12.60;99.90;;;;;;6313754;22;20430;-87
2022/10/22 05:54:16;;;;;;;206.60;106.13;;;12.60;99.90;;;;;;6313254;22;19991;-88
2022/10/22 05:56:42;;;;;;;113.97;57.55;;;12.60;99.90;;;;;;6313031;22;19998;-86
2022/10/22 05:59:31;;;;;;;221.93;111.35;;;12.70;99.90;;;;;;6313119;22;20003;-87
2022/10/22 06:02:00;;;;;;;280.50;142.02;;;12.70;99.90;;;;;;6313278;22;20026;-87
2022/10/22 06:04:29;;;;;;;182.10;92.30;;;12.70;99.90;;;;;;6313362;22;20001;-87
2022/10/22 06:07:03;;;;;;;108.78;60.67;;;12.80;99.90;;;;;;6313206;22;20076;-87
2022/10/22 06:09:39;;;;;;;99.43;57.88;;;12.80;99.90;;;;;;6313098;22;20132;-88
2022/10/22 06:12:09;;;;;;;97.63;53.28;;;12.80;99.90;;;;;;6340672;22;20044;-87
2022/10/22 06:14:38;;;;;;;96.47;52.08;;;12.90;99.90;;;;;;6312714;22;19998;-86
2022/10/22 06:17:38;;;;;;;101.70;55.97;;;12.90;99.90;;;;;;6312645;22;19995;-88
2022/10/22 06:20:47;;;;;;;98.68;53.20;;;13.00;99.90;;;;;;6306686;22;19999;-89
2022/10/22 06:24:06;;;;;;;99.72;51.50;;;13.00;99.90;;;;;;6259161;22;19996;-85
2022/10/22 07:06:23;;;;;;;75.25;39.47;;;14.00;99.90;;;;;;6139224;23;20048;-83
2022/10/22 07:16:53;;;;;;;62.83;35.63;;;14.50;99.90;;;;;;6063151;23;20003;-85
2022/10/22 07:30:06;;;;;;;61.55;32.85;;;15.40;99.90;;;;;;6008548;23;20022;-85
2022/10/22 07:32:47;;;;;;;;;;;;;;;;;;;;;
2022/10/22 07:35:13;;;;;;;71.53;34.27;;;15.70;99.90;;;;;;6009071;23;20083;-86
2022/10/22 07:37:39;;;;;;;61.25;34.45;;;15.90;99.90;;;;;;6009189;23;20485;-86
2022/10/22 07:40:08;;;;;;;58.15;32.53;;;16.10;99.90;;;;;;6009201;23;20082;-86
2022/10/22 07:42:37;;;;;;;57.30;32.08;;;16.40;99.90;;;;;;5985397;23;20044;-86
2022/10/22 07:45:22;;;;;;;53.03;31.35;;;16.60;99.90;;;;;;5987862;23;20003;-85
2022/10/22 07:47:54;;;;;;;50.90;28.75;;;16.80;99.90;;;;;;6037294;23;20027;-86
2022/10/22 07:50:46;;;;;;;54.33;27.38;;;17.00;99.90;;;;;;6014446;23;20437;-85
2022/10/22 07:53:18;;;;;;;52.03;24.73;;;17.00;99.90;;;;;;6094812;23;20003;-87
2022/10/22 07:55:47;;;;;;;42.47;23.90;;;17.20;99.90;;;;;;6094997;23;20077;-86
2022/10/22 08:02:11;;;;;;;47.95;23.85;;;17.50;99.90;;;;;;6065525;23;20325;-85
2022/10/22 08:04:42;;;;;;;50.75;22.80;;;17.50;99.90;;;;;;6087929;23;20046;-85
2022/10/22 08:07:50;;;;;;;38.65;23.98;;;17.50;99.90;;;;;;6182268;23;20005;-88
2022/10/22 08:10:30;;;;;;;47.45;26.35;;;17.70;99.90;;;;;;6183680;23;20011;-85
2022/10/22 08:12:57;;;;;;;54.05;28.85;;;17.90;99.90;;;;;;6183423;23;20001;-86
2022/10/22 08:15:25;;;;;;;52.42;28.60;;;18.00;99.90;;;;;;6158333;23;19997;-92
2022/10/22 08:17:56;;;;;;;54.22;25.98;;;18.30;99.90;;;;;;6184791;23;20084;-88
2022/10/22 08:20:28;;;;;;;40.83;21.50;;;18.50;99.90;;;;;;6159337;23;20001;-88
2022/10/22 08:22:54;;;;;;;41.03;20.75;;;18.80;99.90;;;;;;6183628;23;20032;-90
2022/10/22 08:25:20;;;;;;;38.20;20.15;;;19.00;99.90;;;;;;6183777;23;20335;-89
2022/10/22 08:27:45;;;;;;;38.00;17.30;;;19.10;99.90;;;;;;6184277;23;20009;-90
2022/10/22 08:30:12;;;;;;;35.67;17.70;;;19.20;99.90;;;;;;6185316;23;20101;-87
2022/10/22 08:32:38;;;;;;;36.20;17.13;;;19.20;99.90;;;;;;6184599;23;20024;-88
2022/10/22 08:35:09;;;;;;;30.40;16.75;;;19.20;99.90;;;;;;6185140;23;19997;-87
2022/10/22 08:37:35;;;;;;;33.70;16.08;;;19.50;99.90;;;;;;6204214;22;20049;-88
2022/10/22 08:40:01;;;;;;;32.47;16.73;;;19.60;99.90;;;;;;6314113;22;20003;-89
2022/10/22 08:42:39;;;;;;;36.97;18.38;;;19.80;99.90;;;;;;6315239;22;20003;-88
2022/10/22 08:45:27;;;;;;;40.45;19.77;;;20.00;99.90;;;;;;6315349;22;20404;-92
2022/10/22 08:48:20;;;;;;;35.28;19.80;;;20.20;99.90;;;;;;6315264;22;20412;-89
2022/10/22 08:51:01;;;;;;;33.95;19.40;;;20.30;99.90;;;;;;6315094;22;20415;-88
2022/10/22 08:53:38;;;;;;;49.25;23.10;;;20.30;97.70;;;;;;6313364;22;20397;-87
2022/10/22 08:56:04;;;;;;;48.50;22.20;;;20.40;98.00;;;;;;6315590;22;19994;-86
2022/10/22 08:58:44;;;;;;;48.25;22.00;;;20.50;97.70;;;;;;6316322;22;20005;-84
2022/10/22 09:01:22;;;;;;;41.67;21.08;;;20.50;99.80;;;;;;6316303;22;20203;-85
2022/10/22 09:04:08;;;;;;;51.58;23.00;;;20.50;97.70;;;;;;6312292;22;19995;-86
2022/10/22 09:06:37;;;;;;;47.15;23.20;;;20.50;99.80;;;;;;6285630;22;20026;-85
2022/10/22 09:09:13;;;;;;;50.35;21.67;;;20.50;99.90;;;;;;6310564;22;20312;-89
2022/10/22 09:11:45;;;;;;;37.47;17.83;;;20.40;97.70;;;;;;6284459;22;19995;-86
2022/10/22 09:14:22;;;;;;;;;;;20.50;96.60;;;;;;6285086;22;19995;-89
2022/10/22 09:16:59;;;;;;;35.97;14.65;;;20.60;92.70;;;;;;6284377;22;19902;-89
2022/10/22 09:20:02;;;;;;;32.95;14.18;;;20.60;92.00;;;;;;6311308;22;20001;-87
2022/10/22 09:22:47;;;;;;;34.50;14.88;;;20.70;89.20;;;;;;6284020;22;20021;-85
2022/10/22 09:25:19;;;;;;;29.67;14.40;;;20.70;91.40;;;;;;6283996;22;20023;-87
2022/10/22 09:27:46;;;;;;;42.15;16.38;;;20.70;89.50;;;;;;6284575;22;20014;-86
2022/10/22 09:30:21;;;;;;;31.52;15.20;;;20.70;90.90;;;;;;6284183;22;20004;-87
2022/10/22 09:33:39;;;;;;;36.72;16.20;;;20.80;91.80;;;;;;6283631;22;20019;-84
2022/10/22 09:36:06;;;;;;;33.35;16.42;;;20.90;89.30;;;;;;6245833;23;20000;-88
2022/10/22 09:38:39;;;;;;;30.65;15.90;;;21.20;90.00;;;;;;6246512;23;20000;-88
2022/10/22 09:41:05;;;;;;;36.53;16.98;;;21.40;84.20;;;;;;6221489;23;20031;-88
2022/10/22 09:43:32;;;;;;;25.15;15.27;;;21.60;88.40;;;;;;6221417;23;19996;-89
2022/10/22 09:46:03;;;;;;;28.92;13.85;;;21.60;77.60;;;;;;6221362;23;19996;-88
2022/10/22 09:48:38;;;;;;;23.80;13.77;;;21.50;74.50;;;;;;6220803;23;20000;-86
2022/10/22 09:51:11;;;;;;;27.42;13.68;;;21.40;73.70;;;;;;6219952;23;20004;-89
2022/10/22 09:53:59;;;;;;;23.73;11.05;;;21.30;73.30;;;;;;6219762;23;20018;-88
2022/10/22 09:56:34;;;;;;;24.17;12.90;;;21.20;74.80;;;;;;6245426;23;20023;-89
2022/10/22 09:59:01;;;;;;;22.83;11.50;;;21.20;75.50;;;;;;6220014;23;20084;-86
2022/10/22 10:01:35;;;;;;;27.27;11.52;;;21.20;74.70;;;;;;6219937;23;20020;-86
2022/10/22 10:04:09;;;;;;;25.75;11.38;;;21.20;76.10;;;;;;6258447;22;20475;-88
2022/10/22 10:06:39;;;;;;;21.52;11.27;;;21.20;78.00;;;;;;6280653;22;19991;-86
2022/10/22 10:09:25;;;;;;;28.25;11.48;;;21.30;75.20;;;;;;6281574;22;20022;-88
2022/10/22 10:12:00;;;;;;;21.38;10.38;;;21.40;71.80;;;;;;6299718;22;19998;-87
2022/10/22 10:15:03;;;;;;;19.63;10.88;;;21.50;73.10;;;;;;6340633;22;20001;-89
2022/10/22 10:17:42;;;;;;;25.50;10.25;;;21.60;74.50;;;;;;6313467;22;20076;-90
2022/10/22 10:20:08;;;;;;;24.45;11.63;;;21.70;73.20;;;;;;6341081;22;19995;-89
2022/10/22 10:23:25;;;;;;;23.20;11.10;;;21.70;71.60;;;;;;6312996;22;20029;-88
2022/10/22 10:26:15;;;;;;;32.45;13.55;;;21.80;73.50;;;;;;6185151;23;19993;-86
2022/10/22 10:29:04;;;;;;;25.35;14.10;;;21.90;72.80;;;;;;6159425;23;20011;-87
2022/10/22 10:31:54;;;;;;;38.28;14.40;;;21.90;75.00;;;;;;6141275;23;20012;-87
2022/10/22 10:34:38;;;;;;;27.75;14.27;;;22.00;76.80;;;;;;6160241;23;20072;-88
2022/10/22 10:37:26;;;;;;;36.67;15.52;;;21.90;77.00;;;;;;6159988;23;20001;-87
2022/10/22 10:40:17;;;;;;;33.08;15.55;;;21.90;74.70;;;;;;6159554;23;20437;-86
2022/10/22 10:42:53;;;;;;;37.45;14.95;;;21.90;78.00;;;;;;6160278;23;20415;-88
2022/10/22 10:45:51;;;;;;;34.53;16.45;;;21.80;80.90;;;;;;6160309;23;19997;-88
2022/10/22 10:48:31;;;;;;;40.53;17.38;;;21.80;79.50;;;;;;6184002;23;20001;-87
2022/10/22 10:51:17;;;;;;;36.75;17.13;;;21.90;80.40;;;;;;6157835;23;20012;-87
2022/10/22 10:53:54;;;;;;;37.65;17.48;;;21.90;80.00;;;;;;6184601;23;19997;-86
2022/10/22 10:56:43;;;;;;;38.83;18.00;;;22.00;83.30;;;;;;6159911;23;20001;-90
2022/10/22 10:59:20;;;;;;;34.78;17.35;;;22.10;80.80;;;;;;6159965;23;20414;-86
2022/10/22 11:02:14;;;;;;;40.83;18.95;;;22.10;75.40;;;;;;6230358;22;19990;-90
2022/10/22 11:05:10;;;;;;;27.95;15.68;;;22.10;80.40;;;;;;6297681;22;20463;-87
2022/10/22 11:07:51;;;;;;;31.85;17.10;;;22.20;73.30;;;;;;6281908;22;20044;-88
2022/10/22 11:10:29;;;;;;;46.03;20.15;;;22.20;83.30;;;;;;6309587;22;20087;-85
2022/10/22 11:13:27;;;;;;;38.95;18.30;;;22.10;83.20;;;;;;6310144;22;19995;-86
2022/10/22 11:16:53;;;;;;;37.50;17.70;;;22.10;82.60;;;;;;6294975;22;20044;-87
2022/10/22 11:19:30;;;;;;;29.17;17.00;;;22.30;77.60;;;;;;6154312;23;20413;-86
2022/10/22 11:22:04;;;;;;;35.63;17.35;;;22.30;78.40;;;;;;6154894;23;20005;-91
2022/10/22 11:24:52;;;;;;;34.65;17.10;;;22.30;77.70;;;;;;6130455;23;20140;-90
2022/10/22 11:27:36;;;;;;;34.60;16.73;;;22.40;78.70;;;;;;6125507;23;20116;-90
2022/10/22 11:30:12;;;;;;;66.47;21.40;;;22.40;78.30;;;;;;6128675;23;20013;-87
2022/10/22 11:32:41;;;;;;;39.75;20.23;;;22.30;76.90;;;;;;6129619;23;20057;-88
2022/10/22 11:35:22;;;;;;;49.40;20.45;;;22.30;87.50;;;;;;6142220;23;20002;-90
2022/10/22 11:37:48;;;;;;;45.83;21.43;;;22.10;85.10;;;;;;6129710;23;20470;-85
2022/10/22 11:40:29;;;;;;;43.67;20.02;;;22.00;86.00;;;;;;6154353;23;20010;-92
2022/10/22 11:43:04;;;;;;;38.55;19.15;;;21.90;87.80;;;;;;6157633;23;20009;-85
2022/10/22 11:45:49;;;;;;;47.15;18.83;;;21.90;84.40;;;;;;6136654;23;20001;-85
2022/10/22 11:48:18;;;;;;;41.65;19.42;;;21.90;85.00;;;;;;6130577;23;19994;-86
2022/10/22 11:50:51;;;;;;;43.90;19.42;;;21.90;82.60;;;;;;6129592;23;20002;-85
2022/10/22 11:53:37;;;;;;;38.67;19.02;;;22.00;83.20;;;;;;6212221;22;20010;-84
2022/10/22 11:56:06;;;;;;;43.92;20.05;;;22.10;84.70;;;;;;6286993;22;19991;-83
2022/10/22 11:58:34;;;;;;;39.78;20.38;;;22.10;82.80;;;;;;6287048;22;20030;-82
2022/10/22 12:01:08;;;;;;;45.72;20.08;;;22.10;84.10;;;;;;6286316;22;20057;-83
2022/10/22 12:03:39;;;;;;;41.33;20.80;;;22.00;82.90;;;;;;6288656;22;20070;-84
2022/10/22 12:06:11;;;;;;;43.10;17.98;;;22.00;81.10;;;;;;6318656;22;20029;-83
2022/10/22 12:08:45;;;;;;;42.72;18.92;;;22.00;85.60;;;;;;6317634;22;20026;-84
2022/10/22 12:11:11;;;;;;;42.97;19.00;;;22.00;83.30;;;;;;6316071;22;20397;-83
2022/10/22 12:14:15;;;;;;;46.42;17.95;;;22.00;84.40;;;;;;6318606;22;20019;-83
2022/10/22 12:17:10;;;;;;;31.85;16.73;;;22.10;80.80;;;;;;6345882;22;19995;-86
2022/10/22 12:19:58;;;;;;;38.97;17.77;;;22.10;78.00;;;;;;6308799;22;19998;-88
2022/10/22 12:22:28;;;;;;;34.38;15.88;;;22.20;80.40;;;;;;6318334;22;20023;-84
2022/10/22 12:24:59;;;;;;;34.60;16.60;;;22.30;78.10;;;;;;6344881;22;19998;-86
2022/10/22 12:27:37;;;;;;;39.30;15.40;;;22.40;77.80;;;;;;6315232;22;20003;-87
2022/10/22 12:30:16;;;;;;;38.78;16.05;;;;;;;;;;6311885;22;20400;-84
2022/10/22 12:32:42;;;;;;;37.55;13.60;;;;;;;;;;6312237;22;20422;-84
2022/10/22 12:35:14;;;;;;;26.60;14.27;;;;;;;;;;6312176;22;19994;-84
2022/10/22 12:37:40;;;;;;;32.10;14.80;;;;;;;;;;6313370;22;20006;-82
2022/10/22 12:40:26;;;;;;;37.28;14.90;;;;;;;;;;6312289;22;19999;-84
2022/10/22 12:43:05;;;;;;;33.15;15.18;;;;;;;;;;6312537;22;20390;-89
2022/10/22 12:45:32;;;;;;;32.45;15.65;;;;;;;;;;6312415;22;20088;-87
2022/10/22 12:47:59;;;;;;;30.17;14.65;;;;;;;;;;6338265;22;20427;-81
2022/10/22 12:50:39;;;;;;;24.15;15.07;;;;;;;;;;6312330;22;20007;-82
2022/10/22 12:53:06;;;;;;;30.83;16.92;;;;;;;;;;6311975;22;20040;-84
2022/10/22 12:55:33;;;;;;;35.45;18.70;;;;;;;;;;6312073;22;19991;-86
2022/10/22 12:57:59;;;;;;;33.15;15.43;;;;;;;;;;6339587;22;20003;-82
2022/10/22 13:00:26;;;;;;;30.73;13.52;;;;;;;;;;6339458;22;19999;-83
2022/10/22 13:02:53;;;;;;;30.27;15.05;;;;;;;;;;6311625;22;19995;-83
2022/10/22 13:05:19;;;;;;;28.65;14.27;;;;;;;;;;6311340;22;20442;-84
2022/10/22 13:07:51;;;;;;;25.95;13.65;;;;;;;;;;6311602;22;20458;-84
2022/10/22 13:10:27;;;;;;;24.30;12.68;;;;;;;;;;6313393;22;20299;-85
2022/10/22 13:12:57;;;;;;;29.33;13.00;;;;;;;;;;6315152;22;20435;-83
2022/10/22 13:15:29;;;;;;;23.05;14.40;;;;;;;;;;6317512;22;19999;-82
2022/10/22 13:18:05;;;;;;;30.15;13.68;;;;;;;;;;6343432;22;19990;-83
2022/10/22 13:20:31;;;;;;;29.15;12.73;;;;;;;;;;6346560;22;19998;-84
2022/10/22 13:23:01;;;;;;;26.88;14.15;;;;;;;;;;6318328;22;19998;-83
2022/10/22 13:25:29;;;;;;;28.65;13.95;;;;;;;;;;6318158;22;20005;-85
2022/10/22 13:27:57;;;;;;;29.98;14.25;;;;;;;;;;6314683;22;20005;-89
2022/10/22 13:30:28;;;;;;;31.65;14.93;;;;;;;;;;6317520;22;20404;-83
2022/10/22 13:33:05;;;;;;;29.75;13.88;;;;;;;;;;6342970;22;20068;-86
2022/10/22 13:35:33;;;;;;;28.88;14.35;;;;;;;;;;6341303;22;19991;-83
2022/10/22 13:37:59;;;;;;;33.47;14.10;;;22.90;71.00;;;;;;6315615;22;20401;-83
2022/10/22 13:40:26;;;;;;;30.80;14.20;;;22.90;71.10;;;;;;6314126;22;20006;-86
2022/10/22 13:42:52;;;;;;;30.95;15.30;;;22.80;70.00;;;;;;6313456;22;20048;-92
2022/10/22 13:45:18;;;;;;;30.48;14.10;;;22.80;73.80;;;;;;6314208;22;19999;-85
2022/10/22 13:47:54;;;;;;;37.83;14.20;;;22.70;70.40;;;;;;6342859;22;20048;-87
2022/10/22 13:50:20;;;;;;;43.67;15.27;;;22.70;71.80;;;;;;6314564;22;20056;-85
2022/10/22 13:52:57;;;;;;;38.88;15.50;;;22.60;70.20;;;;;;6317108;22;20026;-90
2022/10/22 13:55:29;;;;;;;40.45;16.27;;;22.60;72.20;;;;;;6318043;22;19999;-86
2022/10/22 13:58:16;;;;;;;;;;;22.60;71.90;;;;;;6341008;22;19991;-84
2022/10/22 14:00:47;;;;;;;39.83;16.35;;;22.60;71.70;;;;;;6342607;22;19905;-85
2022/10/22 14:03:17;;;;;;;35.33;15.40;;;22.60;71.60;;;;;;6316190;22;19998;-82
2022/10/22 14:05:45;;;;;;;35.08;17.25;;;22.60;71.70;;;;;;6314481;22;20010;-86
2022/10/22 14:08:13;;;;;;;46.50;17.42;;;22.50;72.80;;;;;;6341653;22;20005;-87
2022/10/22 14:10:39;;;;;;;39.50;18.65;;;22.50;74.40;;;;;;6315878;22;20102;-85